sensor_id;sensor_type;location;lat;lon;timestamp;temperature;humidity
1355;DHT22;671;48.972;9.276;2022-08-25T00:03:46;20.70;99.90
1355;DHT22;671;48.972;9.276;2022-08-25T00:06:14;20.70;99.90
1355;DHT22;671;48.972;9.276;2022-08-25T00:08:41;20.60;99.90
1355;DHT22;671;48.972;9.276;2022-08-25T00:11:11;20.60;99.90
1355;DHT22;671;48.972;9.276;2022-08-25T00:13:41;20.60;99.90
1355;DHT22;671;48.972;9.276;2022-08-25T00:16:10;20.50;99.90
1355;DHT22;671;48.972;9.276;2022-08-25T00:18:39;20.50;99.90
1355;DHT22;671;48.972;9.276;2022-08-25T00:21:07;20.50;99.90
1355;DHT22;671;48.972;9.276;2022-08-25T00:23:34;20.40;99.90
1355;DHT22;671;48.972;9.276;2022-08-25T00:26:01;20.40;99.90
1355;DHT22;671;48.972;9.276;2022-08-25T00:28:27;20.40;99.90
1355;DHT22;671;48.972;9.276;2022-08-25T00:30:56;20.30;99.90
1355;DHT22;671;48.972;9.276;2022-08-25T00:33:24;20.40;99.90
1355;DHT22;671;48.972;9.276;2022-08-25T00:35:51;20.40;99.90
1355;DHT22;671;48.972;9.276;2022-08-25T00:38:18;20.30;99.90
1355;DHT22;671;48.972;9.276;2022-08-25T00:40:45;20.30;99.90
1355;DHT22;671;48.972;9.276;2022-08-25T00:46:14;20.20;99.90
1355;DHT22;671;48.972;9.276;2022-08-25T00:48:43;20.20;99.90
1355;DHT22;671;48.972;9.276;2022-08-25T00:51:13;20.20;99.90
1355;DHT22;671;48.972;9.276;2022-08-25T00:53:43;20.20;99.90
1355;DHT22;671;48.972;9.276;2022-08-25T00:56:11;20.10;99.90
1355;DHT22;671;48.972;9.276;2022-08-25T00:58:39;20.10;99.90
1355;DHT22;671;48.972;9.276;2022-08-25T01:01:07;20.10;99.90
1355;DHT22;671;48.972;9.276;2022-08-25T01:03:34;20.00;99.90
1355;DHT22;671;48.972;9.276;2022-08-25T01:06:03;20.00;99.90
1355;DHT22;671;48.972;9.276;2022-08-25T01:08:31;19.90;99.90
1355;DHT22;671;48.972;9.276;2022-08-25T01:11:02;19.90;99.90
1355;DHT22;671;48.972;9.276;2022-08-25T01:13:38;19.90;99.90
1355;DHT22;671;48.972;9.276;2022-08-25T01:16:05;19.90;99.90
1355;DHT22;671;48.972;9.276;2022-08-25T01:18:44;19.90;99.90
1355;DHT22;671;48.972;9.276;2022-08-25T01:21:11;19.90;99.90
1355;DHT22;671;48.972;9.276;2022-08-25T01:23:38;19.90;99.90
1355;DHT22;671;48.972;9.276;2022-08-25T01:26:09;19.90;99.90
1355;DHT22;671;48.972;9.276;2022-08-25T01:28:36;19.90;99.90
1355;DHT22;671;48.972;9.276;2022-08-25T01:31:03;19.90;99.90
1355;DHT22;671;48.972;9.276;2022-08-25T01:33:30;19.80;99.90
1355;DHT22;671;48.972;9.276;2022-08-25T01:35:56;19.80;99.90
1355;DHT22;671;48.972;9.276;2022-08-25T01:38:23;19.70;99.90
1355;DHT22;671;48.972;9.276;2022-08-25T01:40:49;19.80;99.90
1355;DHT22;671;48.972;9.276;2022-08-25T01:43:35;19.70;99.90
1355;DHT22;671;48.972;9.276;2022-08-25T01:46:02;19.70;99.90
1355;DHT22;671;48.972;9.276;2022-08-25T01:48:29;19.70;99.90
1355;DHT22;671;48.972;9.276;2022-08-25T01:50:55;19.60;99.90
1355;DHT22;671;48.972;9.276;2022-08-25T01:53:27;19.60;99.90
1355;DHT22;671;48.972;9.276;2022-08-25T01:55:54;19.50;99.90
1355;DHT22;671;48.972;9.276;2022-08-25T01:58:34;19.50;99.90
1355;DHT22;671;48.972;9.276;2022-08-25T02:01:04;19.50;99.90
1355;DHT22;671;48.972;9.276;2022-08-25T02:03:31;19.50;99.90
1355;DHT22;671;48.972;9.276;2022-08-25T02:05:59;19.40;99.90
1355;DHT22;671;48.972;9.276;2022-08-25T02:08:26;19.40;99.90
1355;DHT22;671;48.972;9.276;2022-08-25T02:10:53;19.40;99.90
1355;DHT22;671;48.972;9.276;2022-08-25T02:13:21;19.30;99.90
1355;DHT22;671;48.972;9.276;2022-08-25T02:15:51;19.40;99.90
1355;DHT22;671;48.972;9.276;2022-08-25T02:18:19;19.30;99.90
1355;DHT22;671;48.972;9.276;2022-08-25T02:20:46;19.30;99.90
1355;DHT22;671;48.972;9.276;2022-08-25T02:23:13;19.30;99.90
1355;DHT22;671;48.972;9.276;2022-08-25T02:25:40;19.30;99.90
1355;DHT22;671;48.972;9.276;2022-08-25T02:28:08;19.20;99.90
1355;DHT22;671;48.972;9.276;2022-08-25T02:30:35;19.20;99.90
1355;DHT22;671;48.972;9.276;2022-08-25T02:33:02;19.20;99.90
1355;DHT22;671;48.972;9.276;2022-08-25T02:35:29;19.20;99.90
1355;DHT22;671;48.972;9.276;2022-08-25T02:37:56;19.20;99.90
1355;DHT22;671;48.972;9.276;2022-08-25T02:40:22;19.20;99.90
1355;DHT22;671;48.972;9.276;2022-08-25T02:42:50;19.10;99.90
1355;DHT22;671;48.972;9.276;2022-08-25T02:45:17;19.10;99.90
1355;DHT22;671;48.972;9.276;2022-08-25T02:47:44;19.10;99.90
1355;DHT22;671;48.972;9.276;2022-08-25T02:50:11;19.10;99.90
1355;DHT22;671;48.972;9.276;2022-08-25T02:52:38;19.00;99.90
1355;DHT22;671;48.972;9.276;2022-08-25T02:55:08;19.00;99.90
1355;DHT22;671;48.972;9.276;2022-08-25T02:57:35;19.00;99.90
1355;DHT22;671;48.972;9.276;2022-08-25T03:00:04;18.90;99.90
1355;DHT22;671;48.972;9.276;2022-08-25T03:02:31;18.90;99.90
1355;DHT22;671;48.972;9.276;2022-08-25T03:04:57;18.90;99.90
1355;DHT22;671;48.972;9.276;2022-08-25T03:07:24;18.90;99.90
1355;DHT22;671;48.972;9.276;2022-08-25T03:09:51;18.80;99.90
1355;DHT22;671;48.972;9.276;2022-08-25T03:12:17;18.80;99.90
1355;DHT22;671;48.972;9.276;2022-08-25T03:14:44;18.80;99.90
1355;DHT22;671;48.972;9.276;2022-08-25T03:17:10;18.70;99.90
1355;DHT22;671;48.972;9.276;2022-08-25T03:19:37;18.70;99.90
1355;DHT22;671;48.972;9.276;2022-08-25T03:22:03;18.70;99.90
1355;DHT22;671;48.972;9.276;2022-08-25T03:24:30;18.70;99.90
1355;DHT22;671;48.972;9.276;2022-08-25T03:26:57;18.60;99.90
1355;DHT22;671;48.972;9.276;2022-08-25T03:29:31;18.60;99.90
1355;DHT22;671;48.972;9.276;2022-08-25T03:31:59;18.60;99.90
1355;DHT22;671;48.972;9.276;2022-08-25T03:34:28;18.50;99.90
1355;DHT22;671;48.972;9.276;2022-08-25T03:36:56;18.50;99.90
1355;DHT22;671;48.972;9.276;2022-08-25T03:39:24;18.50;99.90
1355;DHT22;671;48.972;9.276;2022-08-25T03:41:52;18.50;99.90
1355;DHT22;671;48.972;9.276;2022-08-25T03:44:19;18.50;99.90
1355;DHT22;671;48.972;9.276;2022-08-25T03:46:49;18.40;99.90
1355;DHT22;671;48.972;9.276;2022-08-25T03:49:19;18.50;99.90
1355;DHT22;671;48.972;9.276;2022-08-25T03:51:49;18.40;99.90
1355;DHT22;671;48.972;9.276;2022-08-25T03:54:20;18.40;99.90
1355;DHT22;671;48.972;9.276;2022-08-25T03:56:47;18.40;99.90
1355;DHT22;671;48.972;9.276;2022-08-25T03:59:13;18.30;99.90
1355;DHT22;671;48.972;9.276;2022-08-25T04:01:42;18.30;99.90
1355;DHT22;671;48.972;9.276;2022-08-25T04:04:10;18.30;99.90
1355;DHT22;671;48.972;9.276;2022-08-25T04:06:38;18.30;99.90
1355;DHT22;671;48.972;9.276;2022-08-25T04:09:05;18.20;99.90
1355;DHT22;671;48.972;9.276;2022-08-25T04:11:32;18.20;99.90
1355;DHT22;671;48.972;9.276;2022-08-25T04:13:59;18.20;99.90
1355;DHT22;671;48.972;9.276;2022-08-25T04:16:28;18.20;99.90
1355;DHT22;671;48.972;9.276;2022-08-25T04:18:58;18.20;99.90
1355;DHT22;671;48.972;9.276;2022-08-25T04:21:26;18.20;99.90
1355;DHT22;671;48.972;9.276;2022-08-25T04:23:53;18.20;99.90
1355;DHT22;671;48.972;9.276;2022-08-25T04:26:41;18.10;99.90
1355;DHT22;671;48.972;9.276;2022-08-25T04:29:10;18.00;99.90
1355;DHT22;671;48.972;9.276;2022-08-25T04:31:39;18.00;99.90
1355;DHT22;671;48.972;9.276;2022-08-25T04:34:06;18.00;99.90
1355;DHT22;671;48.972;9.276;2022-08-25T04:36:35;18.00;99.90
1355;DHT22;671;48.972;9.276;2022-08-25T04:39:02;18.00;99.90
1355;DHT22;671;48.972;9.276;2022-08-25T04:41:29;18.00;99.90
1355;DHT22;671;48.972;9.276;2022-08-25T04:43:58;18.00;99.90
1355;DHT22;671;48.972;9.276;2022-08-25T04:46:28;18.00;99.90
1355;DHT22;671;48.972;9.276;2022-08-25T04:48:57;18.10;99.90
1355;DHT22;671;48.972;9.276;2022-08-25T04:51:29;18.10;99.90
1355;DHT22;671;48.972;9.276;2022-08-25T04:54:01;18.10;99.90
1355;DHT22;671;48.972;9.276;2022-08-25T04:56:28;18.10;99.90
1355;DHT22;671;48.972;9.276;2022-08-25T04:58:55;18.20;99.90
1355;DHT22;671;48.972;9.276;2022-08-25T05:01:24;18.20;99.90
1355;DHT22;671;48.972;9.276;2022-08-25T05:04:03;18.20;99.90
1355;DHT22;671;48.972;9.276;2022-08-25T05:06:31;18.30;99.90
1355;DHT22;671;48.972;9.276;2022-08-25T05:08:58;18.50;99.90
1355;DHT22;671;48.972;9.276;2022-08-25T05:11:25;18.80;99.90
1355;DHT22;671;48.972;9.276;2022-08-25T05:13:54;19.60;99.90
1355;DHT22;671;48.972;9.276;2022-08-25T05:16:23;21.30;99.90
1355;DHT22;671;48.972;9.276;2022-08-25T05:18:51;22.70;99.90
1355;DHT22;671;48.972;9.276;2022-08-25T05:21:21;23.70;99.90
1355;DHT22;671;48.972;9.276;2022-08-25T05:23:49;24.60;99.90
1355;DHT22;671;48.972;9.276;2022-08-25T05:26:19;24.80;99.90
1355;DHT22;671;48.972;9.276;2022-08-25T05:28:48;23.20;99.90
1355;DHT22;671;48.972;9.276;2022-08-25T05:31:15;22.00;99.90
1355;DHT22;671;48.972;9.276;2022-08-25T05:33:42;21.20;99.90
1355;DHT22;671;48.972;9.276;2022-08-25T05:36:11;20.80;99.90
1355;DHT22;671;48.972;9.276;2022-08-25T05:38:38;20.50;99.90
1355;DHT22;671;48.972;9.276;2022-08-25T05:41:08;20.30;99.90
1355;DHT22;671;48.972;9.276;2022-08-25T05:43:37;20.20;99.90
1355;DHT22;671;48.972;9.276;2022-08-25T05:46:05;20.20;99.90
1355;DHT22;671;48.972;9.276;2022-08-25T05:48:32;20.10;99.90
1355;DHT22;671;48.972;9.276;2022-08-25T05:51:00;20.20;99.90
1355;DHT22;671;48.972;9.276;2022-08-25T05:53:28;20.20;99.90
1355;DHT22;671;48.972;9.276;2022-08-25T05:55:56;20.20;99.90
1355;DHT22;671;48.972;9.276;2022-08-25T05:58:23;20.20;99.90
1355;DHT22;671;48.972;9.276;2022-08-25T06:00:49;20.20;99.90
1355;DHT22;671;48.972;9.276;2022-08-25T06:03:17;20.20;99.90
1355;DHT22;671;48.972;9.276;2022-08-25T06:05:43;20.20;99.90
1355;DHT22;671;48.972;9.276;2022-08-25T06:08:10;20.30;99.90
1355;DHT22;671;48.972;9.276;2022-08-25T06:10:36;20.30;99.90
1355;DHT22;671;48.972;9.276;2022-08-25T06:13:03;20.30;99.90
1355;DHT22;671;48.972;9.276;2022-08-25T06:15:30;20.30;99.90
1355;DHT22;671;48.972;9.276;2022-08-25T06:17:57;20.40;99.90
1355;DHT22;671;48.972;9.276;2022-08-25T06:20:25;20.50;99.90
1355;DHT22;671;48.972;9.276;2022-08-25T06:22:53;20.50;99.90
1355;DHT22;671;48.972;9.276;2022-08-25T06:25:22;20.60;99.90
1355;DHT22;671;48.972;9.276;2022-08-25T06:27:49;20.70;99.90
1355;DHT22;671;48.972;9.276;2022-08-25T06:30:19;20.70;99.90
1355;DHT22;671;48.972;9.276;2022-08-25T06:32:46;20.80;99.90
1355;DHT22;671;48.972;9.276;2022-08-25T06:35:17;20.80;99.90
1355;DHT22;671;48.972;9.276;2022-08-25T06:37:45;20.90;99.90
1355;DHT22;671;48.972;9.276;2022-08-25T06:40:12;20.90;99.90
1355;DHT22;671;48.972;9.276;2022-08-25T06:42:39;21.00;99.90
1355;DHT22;671;48.972;9.276;2022-08-25T06:45:06;21.10;99.90
1355;DHT22;671;48.972;9.276;2022-08-25T06:47:33;21.20;99.90
1355;DHT22;671;48.972;9.276;2022-08-25T06:50:00;21.40;99.90
1355;DHT22;671;48.972;9.276;2022-08-25T06:52:29;21.50;99.90
1355;DHT22;671;48.972;9.276;2022-08-25T06:54:55;21.50;99.90
1355;DHT22;671;48.972;9.276;2022-08-25T06:57:21;21.60;99.90
1355;DHT22;671;48.972;9.276;2022-08-25T06:59:47;21.70;99.90
1355;DHT22;671;48.972;9.276;2022-08-25T07:02:13;21.90;99.90
1355;DHT22;671;48.972;9.276;2022-08-25T07:04:40;22.00;99.90
1355;DHT22;671;48.972;9.276;2022-08-25T07:07:06;22.10;99.90
1355;DHT22;671;48.972;9.276;2022-08-25T07:09:33;22.20;99.90
1355;DHT22;671;48.972;9.276;2022-08-25T07:11:59;22.30;99.90
1355;DHT22;671;48.972;9.276;2022-08-25T07:14:27;22.40;99.90
1355;DHT22;671;48.972;9.276;2022-08-25T07:16:54;22.50;99.90
1355;DHT22;671;48.972;9.276;2022-08-25T07:19:20;22.50;99.90
1355;DHT22;671;48.972;9.276;2022-08-25T07:21:50;22.70;99.90
1355;DHT22;671;48.972;9.276;2022-08-25T07:24:17;22.80;99.90
1355;DHT22;671;48.972;9.276;2022-08-25T07:26:44;22.80;99.90
1355;DHT22;671;48.972;9.276;2022-08-25T07:29:26;22.90;99.90
1355;DHT22;671;48.972;9.276;2022-08-25T07:31:54;23.00;99.90
1355;DHT22;671;48.972;9.276;2022-08-25T07:34:21;23.20;99.90
1355;DHT22;671;48.972;9.276;2022-08-25T07:37:06;23.30;99.90
1355;DHT22;671;48.972;9.276;2022-08-25T07:39:33;23.40;99.90
1355;DHT22;671;48.972;9.276;2022-08-25T07:42:01;23.50;99.90
1355;DHT22;671;48.972;9.276;2022-08-25T07:44:27;23.70;99.90
1355;DHT22;671;48.972;9.276;2022-08-25T07:46:54;23.80;99.90
1355;DHT22;671;48.972;9.276;2022-08-25T07:49:22;23.90;99.90
1355;DHT22;671;48.972;9.276;2022-08-25T07:51:50;23.90;99.90
1355;DHT22;671;48.972;9.276;2022-08-25T07:54:17;24.00;99.90
1355;DHT22;671;48.972;9.276;2022-08-25T07:56:44;24.10;99.90
1355;DHT22;671;48.972;9.276;2022-08-25T07:59:11;24.30;99.90
1355;DHT22;671;48.972;9.276;2022-08-25T08:01:39;24.40;99.90
1355;DHT22;671;48.972;9.276;2022-08-25T08:04:05;24.50;99.90
1355;DHT22;671;48.972;9.276;2022-08-25T08:06:32;24.60;99.90
1355;DHT22;671;48.972;9.276;2022-08-25T08:08:59;24.80;99.90
1355;DHT22;671;48.972;9.276;2022-08-25T08:11:30;24.80;99.90
1355;DHT22;671;48.972;9.276;2022-08-25T08:14:00;24.90;99.90
1355;DHT22;671;48.972;9.276;2022-08-25T08:16:28;25.00;99.90
1355;DHT22;671;48.972;9.276;2022-08-25T08:18:56;25.10;99.90
1355;DHT22;671;48.972;9.276;2022-08-25T08:21:26;25.30;99.90
1355;DHT22;671;48.972;9.276;2022-08-25T08:23:54;25.30;99.90
1355;DHT22;671;48.972;9.276;2022-08-25T08:26:21;25.50;99.90
1355;DHT22;671;48.972;9.276;2022-08-25T08:28:49;25.60;99.90
1355;DHT22;671;48.972;9.276;2022-08-25T08:31:22;25.60;99.90
1355;DHT22;671;48.972;9.276;2022-08-25T08:33:50;25.70;99.90
1355;DHT22;671;48.972;9.276;2022-08-25T08:36:17;25.80;99.90
1355;DHT22;671;48.972;9.276;2022-08-25T08:38:44;25.90;99.90
1355;DHT22;671;48.972;9.276;2022-08-25T08:47:39;26.10;99.90
1355;DHT22;671;48.972;9.276;2022-08-25T08:55:43;26.30;99.90
1355;DHT22;671;48.972;9.276;2022-08-25T08:58:19;26.50;99.90
1355;DHT22;671;48.972;9.276;2022-08-25T09:00:49;26.50;99.90
1355;DHT22;671;48.972;9.276;2022-08-25T09:06:11;26.50;99.90
1355;DHT22;671;48.972;9.276;2022-08-25T09:08:40;26.70;99.90
1355;DHT22;671;48.972;9.276;2022-08-25T09:14:21;26.90;99.90
1355;DHT22;671;48.972;9.276;2022-08-25T09:20:03;27.40;99.90
1355;DHT22;671;48.972;9.276;2022-08-25T09:25:25;27.50;99.90
1355;DHT22;671;48.972;9.276;2022-08-25T09:33:07;27.90;98.60
1355;DHT22;671;48.972;9.276;2022-08-25T09:35:38;28.00;98.10
1355;DHT22;671;48.972;9.276;2022-08-25T09:38:09;28.00;97.90
1355;DHT22;671;48.972;9.276;2022-08-25T09:40:40;28.10;97.90
1355;DHT22;671;48.972;9.276;2022-08-25T09:45:49;28.40;97.20
1355;DHT22;671;48.972;9.276;2022-08-25T09:50:58;28.70;96.40
1355;DHT22;671;48.972;9.276;2022-08-25T09:53:27;28.90;96.30
1355;DHT22;671;48.972;9.276;2022-08-25T09:56:04;29.10;95.80
1355;DHT22;671;48.972;9.276;2022-08-25T09:58:32;29.30;95.40
1355;DHT22;671;48.972;9.276;2022-08-25T10:01:17;29.30;95.20
1355;DHT22;671;48.972;9.276;2022-08-25T10:04:01;29.20;94.70
1355;DHT22;671;48.972;9.276;2022-08-25T10:06:41;29.20;94.20
1355;DHT22;671;48.972;9.276;2022-08-25T10:09:12;29.30;94.40
1355;DHT22;671;48.972;9.276;2022-08-25T10:11:47;29.30;94.40
1355;DHT22;671;48.972;9.276;2022-08-25T10:16:43;29.00;94.20
1355;DHT22;671;48.972;9.276;2022-08-25T10:24:31;28.80;93.90
1355;DHT22;671;48.972;9.276;2022-08-25T10:27:16;28.90;94.30
1355;DHT22;671;48.972;9.276;2022-08-25T10:30:22;29.00;93.70
1355;DHT22;671;48.972;9.276;2022-08-25T10:35:31;29.00;93.80
1355;DHT22;671;48.972;9.276;2022-08-25T10:38:17;29.20;94.00
1355;DHT22;671;48.972;9.276;2022-08-25T10:40:55;29.30;93.70
1355;DHT22;671;48.972;9.276;2022-08-25T10:49:18;29.70;91.40
1355;DHT22;671;48.972;9.276;2022-08-25T10:51:56;29.90;91.20
1355;DHT22;671;48.972;9.276;2022-08-25T10:54:57;29.90;91.60
1355;DHT22;671;48.972;9.276;2022-08-25T10:57:38;30.00;91.10
1355;DHT22;671;48.972;9.276;2022-08-25T11:00:21;30.10;91.00
1355;DHT22;671;48.972;9.276;2022-08-25T11:05:32;30.40;90.50
1355;DHT22;671;48.972;9.276;2022-08-25T11:11:04;30.60;90.20
1355;DHT22;671;48.972;9.276;2022-08-25T11:14:04;30.70;90.10
1355;DHT22;671;48.972;9.276;2022-08-25T11:16:39;30.90;89.10
1355;DHT22;671;48.972;9.276;2022-08-25T11:19:29;30.90;87.70
1355;DHT22;671;48.972;9.276;2022-08-25T11:22:05;31.00;86.50
1355;DHT22;671;48.972;9.276;2022-08-25T11:24:39;30.90;86.90
1355;DHT22;671;48.972;9.276;2022-08-25T11:27:18;31.00;86.70
1355;DHT22;671;48.972;9.276;2022-08-25T11:30:08;30.90;85.70
1355;DHT22;671;48.972;9.276;2022-08-25T11:32:37;31.00;86.50
1355;DHT22;671;48.972;9.276;2022-08-25T11:35:10;31.10;86.50
1355;DHT22;671;48.972;9.276;2022-08-25T11:37:56;31.20;86.90
1355;DHT22;671;48.972;9.276;2022-08-25T11:45:58;31.60;86.40
1355;DHT22;671;48.972;9.276;2022-08-25T11:51:44;32.00;85.60
1355;DHT22;671;48.972;9.276;2022-08-25T11:54:28;32.00;83.60
1355;DHT22;671;48.972;9.276;2022-08-25T11:57:24;31.90;84.20
1355;DHT22;671;48.972;9.276;2022-08-25T12:04:56;31.70;83.10
1355;DHT22;671;48.972;9.276;2022-08-25T12:07:26;31.70;82.70
1355;DHT22;671;48.972;9.276;2022-08-25T12:15:25;32.00;81.30
1355;DHT22;671;48.972;9.276;2022-08-25T12:18:12;32.10;82.50
1355;DHT22;671;48.972;9.276;2022-08-25T12:26:34;32.30;81.60
1355;DHT22;671;48.972;9.276;2022-08-25T12:29:12;32.20;82.50
1355;DHT22;671;48.972;9.276;2022-08-25T12:34:41;32.20;82.50
1355;DHT22;671;48.972;9.276;2022-08-25T12:37:13;32.10;81.30
1355;DHT22;671;48.972;9.276;2022-08-25T12:40:03;32.10;82.70
1355;DHT22;671;48.972;9.276;2022-08-25T12:42:31;32.10;81.70
1355;DHT22;671;48.972;9.276;2022-08-25T12:47:33;32.20;81.50
1355;DHT22;671;48.972;9.276;2022-08-25T12:53:22;32.50;79.70
1355;DHT22;671;48.972;9.276;2022-08-25T12:55:56;32.60;80.10
1355;DHT22;671;48.972;9.276;2022-08-25T12:58:46;32.70;79.20
1355;DHT22;671;48.972;9.276;2022-08-25T13:01:23;32.50;78.80
1355;DHT22;671;48.972;9.276;2022-08-25T13:04:15;32.20;79.70
1355;DHT22;671;48.972;9.276;2022-08-25T13:07:18;32.10;80.70
1355;DHT22;671;48.972;9.276;2022-08-25T13:12:48;32.10;79.70
1355;DHT22;671;48.972;9.276;2022-08-25T13:15:35;32.30;79.70
1355;DHT22;671;48.972;9.276;2022-08-25T13:18:29;32.20;78.70
1355;DHT22;671;48.972;9.276;2022-08-25T13:23:35;32.10;79.30
1355;DHT22;671;48.972;9.276;2022-08-25T13:26:03;32.10;79.20
1355;DHT22;671;48.972;9.276;2022-08-25T13:28:33;32.00;79.30
1355;DHT22;671;48.972;9.276;2022-08-25T13:31:05;31.80;79.00
1355;DHT22;671;48.972;9.276;2022-08-25T13:33:33;31.70;79.80
1355;DHT22;671;48.972;9.276;2022-08-25T13:36:01;31.60;80.30
1355;DHT22;671;48.972;9.276;2022-08-25T13:38:47;31.50;80.00
1355;DHT22;671;48.972;9.276;2022-08-25T13:41:23;31.50;80.80
1355;DHT22;671;48.972;9.276;2022-08-25T13:43:50;31.40;80.40
1355;DHT22;671;48.972;9.276;2022-08-25T13:46:21;31.20;80.40
1355;DHT22;671;48.972;9.276;2022-08-25T13:48:48;31.20;81.70
1355;DHT22;671;48.972;9.276;2022-08-25T13:51:22;31.30;81.30
1355;DHT22;671;48.972;9.276;2022-08-25T13:53:58;31.60;81.90
1355;DHT22;671;48.972;9.276;2022-08-25T13:56:40;31.80;80.00
1355;DHT22;671;48.972;9.276;2022-08-25T13:59:24;31.90;79.10
1355;DHT22;671;48.972;9.276;2022-08-25T14:01:53;32.00;79.70
1355;DHT22;671;48.972;9.276;2022-08-25T14:07:05;32.00;79.30
1355;DHT22;671;48.972;9.276;2022-08-25T14:09:48;31.90;79.00
1355;DHT22;671;48.972;9.276;2022-08-25T14:17:36;32.20;76.60
1355;DHT22;671;48.972;9.276;2022-08-25T14:20:05;32.50;77.50
1355;DHT22;671;48.972;9.276;2022-08-25T14:22:32;32.60;77.30
1355;DHT22;671;48.972;9.276;2022-08-25T14:24:57;32.60;78.80
1355;DHT22;671;48.972;9.276;2022-08-25T14:27:23;32.70;77.00
1355;DHT22;671;48.972;9.276;2022-08-25T14:29:49;32.80;76.40
1355;DHT22;671;48.972;9.276;2022-08-25T14:32:15;32.90;76.60
1355;DHT22;671;48.972;9.276;2022-08-25T14:34:42;33.00;77.10
1355;DHT22;671;48.972;9.276;2022-08-25T14:37:13;33.10;74.30
1355;DHT22;671;48.972;9.276;2022-08-25T14:39:40;33.00;75.20
1355;DHT22;671;48.972;9.276;2022-08-25T14:42:07;33.00;75.50
1355;DHT22;671;48.972;9.276;2022-08-25T14:44:34;33.10;74.30
1355;DHT22;671;48.972;9.276;2022-08-25T14:47:00;33.20;74.80
1355;DHT22;671;48.972;9.276;2022-08-25T14:49:31;33.20;74.70
1355;DHT22;671;48.972;9.276;2022-08-25T14:52:06;33.30;74.70
1355;DHT22;671;48.972;9.276;2022-08-25T14:54:34;33.30;74.20
1355;DHT22;671;48.972;9.276;2022-08-25T14:57:01;33.40;73.70
1355;DHT22;671;48.972;9.276;2022-08-25T14:59:27;33.40;74.20
1355;DHT22;671;48.972;9.276;2022-08-25T15:01:54;33.50;74.30
1355;DHT22;671;48.972;9.276;2022-08-25T15:04:22;33.50;74.20
1355;DHT22;671;48.972;9.276;2022-08-25T15:06:55;33.40;73.70
1355;DHT22;671;48.972;9.276;2022-08-25T15:09:23;33.40;74.20
1355;DHT22;671;48.972;9.276;2022-08-25T15:11:52;33.40;74.20
1355;DHT22;671;48.972;9.276;2022-08-25T15:14:21;33.40;73.90
1355;DHT22;671;48.972;9.276;2022-08-25T15:16:51;33.40;74.20
1355;DHT22;671;48.972;9.276;2022-08-25T15:19:20;33.30;74.10
1355;DHT22;671;48.972;9.276;2022-08-25T15:21:48;33.30;73.60
1355;DHT22;671;48.972;9.276;2022-08-25T15:24:15;33.20;73.70
1355;DHT22;671;48.972;9.276;2022-08-25T15:26:54;33.20;72.40
1355;DHT22;671;48.972;9.276;2022-08-25T15:29:22;33.10;72.50
1355;DHT22;671;48.972;9.276;2022-08-25T15:31:50;33.00;71.90
1355;DHT22;671;48.972;9.276;2022-08-25T15:34:17;33.00;72.10
1355;DHT22;671;48.972;9.276;2022-08-25T15:36:44;33.00;72.10
1355;DHT22;671;48.972;9.276;2022-08-25T15:39:11;32.90;72.40
1355;DHT22;671;48.972;9.276;2022-08-25T15:41:38;32.90;72.40
1355;DHT22;671;48.972;9.276;2022-08-25T15:44:06;32.80;73.60
1355;DHT22;671;48.972;9.276;2022-08-25T15:46:34;32.80;73.70
1355;DHT22;671;48.972;9.276;2022-08-25T15:49:02;32.80;73.70
1355;DHT22;671;48.972;9.276;2022-08-25T15:51:28;32.80;73.70
1355;DHT22;671;48.972;9.276;2022-08-25T15:53:56;32.80;72.80
1355;DHT22;671;48.972;9.276;2022-08-25T15:56:23;32.70;73.20
1355;DHT22;671;48.972;9.276;2022-08-25T15:58:50;32.60;72.20
1355;DHT22;671;48.972;9.276;2022-08-25T16:01:19;32.60;72.50
1355;DHT22;671;48.972;9.276;2022-08-25T16:03:46;32.60;71.90
1355;DHT22;671;48.972;9.276;2022-08-25T16:06:13;32.50;71.70
1355;DHT22;671;48.972;9.276;2022-08-25T16:08:39;32.40;72.30
1355;DHT22;671;48.972;9.276;2022-08-25T16:11:19;32.20;73.30
1355;DHT22;671;48.972;9.276;2022-08-25T16:13:46;32.00;74.00
1355;DHT22;671;48.972;9.276;2022-08-25T16:16:14;31.80;74.10
1355;DHT22;671;48.972;9.276;2022-08-25T16:18:42;31.60;75.10
1355;DHT22;671;48.972;9.276;2022-08-25T16:21:10;31.40;76.20
1355;DHT22;671;48.972;9.276;2022-08-25T16:23:37;31.30;76.30
1355;DHT22;671;48.972;9.276;2022-08-25T16:26:07;31.10;77.10
1355;DHT22;671;48.972;9.276;2022-08-25T16:28:35;31.00;77.20
1355;DHT22;671;48.972;9.276;2022-08-25T16:31:02;30.90;77.80
1355;DHT22;671;48.972;9.276;2022-08-25T16:33:29;30.80;78.60
1355;DHT22;671;48.972;9.276;2022-08-25T16:36:07;30.70;78.80
1355;DHT22;671;48.972;9.276;2022-08-25T16:38:35;30.60;79.10
1355;DHT22;671;48.972;9.276;2022-08-25T16:41:05;30.50;79.10
1355;DHT22;671;48.972;9.276;2022-08-25T16:43:31;30.50;79.80
1355;DHT22;671;48.972;9.276;2022-08-25T16:45:59;30.40;79.50
1355;DHT22;671;48.972;9.276;2022-08-25T16:48:28;30.40;80.40
1355;DHT22;671;48.972;9.276;2022-08-25T16:50:56;30.30;80.30
1355;DHT22;671;48.972;9.276;2022-08-25T16:53:23;30.30;80.40
1355;DHT22;671;48.972;9.276;2022-08-25T16:56:09;30.20;80.90
1355;DHT22;671;48.972;9.276;2022-08-25T16:58:36;30.20;80.30
1355;DHT22;671;48.972;9.276;2022-08-25T17:01:08;30.10;80.90
1355;DHT22;671;48.972;9.276;2022-08-25T17:03:36;30.00;80.90
1355;DHT22;671;48.972;9.276;2022-08-25T17:06:03;29.90;81.80
1355;DHT22;671;48.972;9.276;2022-08-25T17:08:30;29.90;81.40
1355;DHT22;671;48.972;9.276;2022-08-25T17:11:10;29.90;81.20
1355;DHT22;671;48.972;9.276;2022-08-25T17:13:40;29.80;81.10
1355;DHT22;671;48.972;9.276;2022-08-25T17:16:07;29.90;81.40
1355;DHT22;671;48.972;9.276;2022-08-25T17:18:34;29.90;80.70
1355;DHT22;671;48.972;9.276;2022-08-25T17:21:03;29.90;80.70
1355;DHT22;671;48.972;9.276;2022-08-25T17:23:31;30.00;80.50
1355;DHT22;671;48.972;9.276;2022-08-25T17:25:58;30.00;80.80
1355;DHT22;671;48.972;9.276;2022-08-25T17:28:25;29.90;80.70
1355;DHT22;671;48.972;9.276;2022-08-25T17:30:53;29.90;80.80
1355;DHT22;671;48.972;9.276;2022-08-25T17:33:20;29.80;80.70
1355;DHT22;671;48.972;9.276;2022-08-25T17:35:49;29.70;80.60
1355;DHT22;671;48.972;9.276;2022-08-25T17:38:17;29.60;81.00
1355;DHT22;671;48.972;9.276;2022-08-25T17:40:52;29.50;80.80
1355;DHT22;671;48.972;9.276;2022-08-25T17:43:20;29.40;80.90
1355;DHT22;671;48.972;9.276;2022-08-25T17:45:47;29.40;81.40
1355;DHT22;671;48.972;9.276;2022-08-25T17:48:14;29.30;82.10
1355;DHT22;671;48.972;9.276;2022-08-25T17:50:43;29.20;82.20
1355;DHT22;671;48.972;9.276;2022-08-25T17:53:10;29.10;82.00
1355;DHT22;671;48.972;9.276;2022-08-25T17:55:38;29.00;82.00
1355;DHT22;671;48.972;9.276;2022-08-25T17:58:06;28.90;82.10
1355;DHT22;671;48.972;9.276;2022-08-25T18:00:33;28.90;81.80
1355;DHT22;671;48.972;9.276;2022-08-25T18:03:00;28.80;82.30
1355;DHT22;671;48.972;9.276;2022-08-25T18:05:30;28.70;82.80
1355;DHT22;671;48.972;9.276;2022-08-25T18:07:59;28.60;83.00
1355;DHT22;671;48.972;9.276;2022-08-25T18:10:26;28.50;82.70
1355;DHT22;671;48.972;9.276;2022-08-25T18:12:53;28.40;82.80
1355;DHT22;671;48.972;9.276;2022-08-25T18:15:20;28.30;83.00
1355;DHT22;671;48.972;9.276;2022-08-25T18:17:46;28.20;83.70
1355;DHT22;671;48.972;9.276;2022-08-25T18:20:13;28.20;84.20
1355;DHT22;671;48.972;9.276;2022-08-25T18:22:40;28.00;84.60
1355;DHT22;671;48.972;9.276;2022-08-25T18:25:10;27.90;84.90